Lansing, Michigan
Current Conditions -  °F | °C
As of 1:04 PM on Monday 24 Nov 2014 (Local Time) from KLAN Reporting Station
Heavy Rain Heavy Rain  
Wind Chill: 52°   Ceiling: 900
Heat Index: 52°   Visibility: 3mi
Dew Point: 49°   Wind: 20mph
Humidity: 89%   Direction: 230°SW
Pressure: 29.1"   Gusts: 28mph
Location:  42.73°N, 84.55°W
Report Text: KLAN 241804Z 23017G24KT 3SM +RA BR BKN009 BKN019 OVC040 11/09 A2910 RMK AO2 PRESRR P0005 T01110094
Loading
Personal Weather Stations






























Interactive Weather Map New forecast layout! Learn more

10-Day Weather Forecast

Advertisements
Track Severe Weather on mobile